Enosburg Falls, Vermont
Current Conditions -  °F | °C
As of 11:15 PM on Tuesday 25 Nov 2014 (Local Time) from KFSO Reporting Station
Overcast Overcast  
Wind Chill: 33°   Ceiling: 4800
Heat Index: 40°   Visibility: 10mi
Dew Point: 26°   Wind: 13mph
Humidity: 56%   Direction: 250°WSW
Pressure: 30.1"   Gusts: 21mph
Location:  44.91°N, 72.81°W
Report Text: KFSO 260415Z AUTO 25011G18KT 10SM OVC048 05/M03 A3010 RMK AO2 T00451035
Loading
Personal Weather Stations






























Interactive Weather Map New forecast layout! Learn more

10-Day Weather Forecast

Advertisements
Track Severe Weather on mobile